Portada
METAR-TAF:

METAR-TAF

Aeroports :

Valença, França

latitud: 44-54-58N, longitud: 4-58-06E, altitud: 160 m

Observació

L'informe es va fer fa 31 minuts, a les 16:00 UTC
Vent 9 kt del Nord/Nord-Est, variant entre Nord i Est/Nord-Est
Temperatura 31°C
Humitat 21%
Pressió 1011 hPa
Visibilitat 10 km o més
sense núvols per sota de 1500 mi sense presència de cumulonimbus.

METAR: LFLU 171600Z AUTO 03009KT 360V060 CAVOK 31/06 Q1011

Hora: 18:31 (16:31 UTC)


TAF: manca

Observacions i pronòstics meteorològics de més de 4000 aeroports (METAR i TAF).

Les estacions disponibles són els punts grocs i vermells al mapa.

Posi el ratolí al punt desitjat per veure el nom de l'estació.

Feu clic per veure les observacions i els pronòstics meteorològics.

Per canviar el mapa: feu clic els botons verds amb una creu de color negre per apropar; al botó verd amb un guió per allunyar la imatge; o en les fletxes verdes per a mapes adjacents.


METAR-TAF: